Time,TemperatureF,DewpointF,PressureIn,WindDirection,WindDirectionDegrees,WindSpeedMPH,WindSpeedGustMPH,Humidity,HourlyPrecipIn,Conditions,Clouds,dailyrainin,SolarRadiationWatts/m^2,SoftwareType,DateUTC
2013-02-27 00:10:00,41.0,40.0,29.84,ENE,74,11.0,25.0,95,0.24,,,0.05,0,weatherlink.com 1.10,2013-02-27 05:10:00,
2013-02-27 00:27:00,41.3,40.0,29.84,East,83,11.0,32.0,95,0.24,,,0.10,0,weatherlink.com 1.10,2013-02-27 05:27:00,
2013-02-27 00:42:00,41.5,40.0,29.83,ESE,112,8.0,26.0,95,0.21,,,0.14,0,weatherlink.com 1.10,2013-02-27 05:42:00,
2013-02-27 00:57:00,42.0,41.0,29.82,East,81,20.0,26.0,96,0.18,,,0.17,0,weatherlink.com 1.10,2013-02-27 05:57:00,
2013-02-27 01:11:00,42.2,41.0,29.80,ESE,103,16.0,31.0,96,0.15,,,0.20,0,weatherlink.com 1.10,2013-02-27 06:11:00,
2013-02-27 01:26:00,42.2,41.0,29.80,East,96,19.0,26.0,96,0.14,,,0.24,0,weatherlink.com 1.10,2013-02-27 06:26:00,
2013-02-27 01:41:00,42.4,41.0,29.79,East,84,16.0,23.0,96,0.14,,,0.28,0,weatherlink.com 1.10,2013-02-27 06:41:00,
2013-02-27 01:57:00,42.5,42.0,29.76,ENE,65,10.0,26.0,96,0.15,,,0.33,0,weatherlink.com 1.10,2013-02-27 06:57:00,
2013-02-27 02:11:00,42.5,42.0,29.73,East,81,13.0,28.0,96,0.17,,,0.37,0,weatherlink.com 1.10,2013-02-27 07:11:00,
2013-02-27 02:26:00,42.3,41.0,29.73,NE,51,5.0,25.0,96,0.16,,,0.41,0,weatherlink.com 1.10,2013-02-27 07:26:00,
2013-02-27 02:41:00,42.4,41.0,29.71,NE,40,17.0,21.0,96,0.14,,,0.42,0,weatherlink.com 1.10,2013-02-27 07:41:00,
2013-02-27 02:56:00,42.7,42.0,29.70,East,86,8.0,19.0,96,0.10,,,0.43,0,weatherlink.com 1.10,2013-02-27 07:56:00,
2013-02-27 03:11:00,43.2,42.0,29.68,East,86,17.0,21.0,96,0.07,,,0.44,0,weatherlink.com 1.10,2013-02-27 08:11:00,
2013-02-27 03:27:00,43.8,43.0,29.66,ENE,67,14.0,23.0,97,0.03,,,0.44,0,weatherlink.com 1.10,2013-02-27 08:27:00,
2013-02-27 03:42:00,44.0,43.0,29.65,East,100,6.0,20.0,97,0.08,,,0.50,0,weatherlink.com 1.10,2013-02-27 08:42:00,
2013-02-27 03:59:00,44.2,43.0,29.64,East,96,25.0,25.0,97,0.08,,,0.51,0,weatherlink.com 1.10,2013-02-27 08:59:00,
2013-02-27 04:12:00,44.6,44.0,29.64,ENE,78,12.0,23.0,97,0.08,,,0.52,0,weatherlink.com 1.10,2013-02-27 09:12:00,
2013-02-27 04:27:00,44.5,44.0,29.63,East,99,9.0,24.0,97,0.08,,,0.53,0,weatherlink.com 1.10,2013-02-27 09:27:00,
2013-02-27 04:42:00,44.7,44.0,29.62,East,80,8.0,21.0,97,0.04,,,0.54,0,weatherlink.com 1.10,2013-02-27 09:42:00,
2013-02-27 04:57:00,44.9,44.0,29.61,East,101,11.0,21.0,97,0.03,,,0.54,0,weatherlink.com 1.10,2013-02-27 09:57:00,
2013-02-27 05:12:00,44.8,44.0,29.60,NE,48,9.0,16.0,97,0.02,,,0.54,0,weatherlink.com 1.10,2013-02-27 10:12:00,
2013-02-27 05:27:00,44.9,44.0,29.59,East,98,6.0,21.0,97,0.03,,,0.56,0,weatherlink.com 1.10,2013-02-27 10:27:00,
2013-02-27 05:42:00,45.4,45.0,29.59,East,97,10.0,17.0,97,0.02,,,0.56,0,weatherlink.com 1.10,2013-02-27 10:42:00,
2013-02-27 05:58:00,45.8,45.0,29.59,East,99,6.0,14.0,97,0.05,,,0.59,0,weatherlink.com 1.10,2013-02-27 10:58:00,
2013-02-27 06:12:00,45.8,45.0,29.58,NE,41,5.0,16.0,97,0.06,,,0.60,0,weatherlink.com 1.10,2013-02-27 11:12:00,
2013-02-27 06:27:00,45.8,45.0,29.57,SE,138,6.0,14.0,97,0.06,,,0.62,0,weatherlink.com 1.10,2013-02-27 11:27:00,
2013-02-27 06:42:00,46.1,45.0,29.57,East,86,6.0,14.0,97,0.06,,,0.62,0,weatherlink.com 1.10,2013-02-27 11:42:00,
2013-02-27 06:57:00,46.4,46.0,29.55,East,94,8.0,22.0,97,0.03,,,0.62,0,weatherlink.com 1.10,2013-02-27 11:57:00,
2013-02-27 07:12:00,46.8,46.0,29.55,ESE,111,13.0,16.0,98,0.02,,,0.62,5,weatherlink.com 1.10,2013-02-27 12:12:00,
2013-02-27 07:28:00,46.7,46.0,29.54,ENE,66,8.0,18.0,97,0.00,,,0.62,7,weatherlink.com 1.10,2013-02-27 12:28:00,
2013-02-27 07:42:00,46.7,46.0,29.54,ENE,78,10.0,19.0,97,0.00,,,0.62,11,weatherlink.com 1.10,2013-02-27 12:42:00,
2013-02-27 07:57:00,46.4,46.0,29.54,ENE,65,3.0,14.0,97,0.00,,,0.62,12,weatherlink.com 1.10,2013-02-27 12:57:00,
2013-02-27 08:12:00,46.5,46.0,29.54,NE,40,3.0,15.0,97,0.00,,,0.62,33,weatherlink.com 1.10,2013-02-27 13:12:00,
2013-02-27 08:27:00,46.9,46.0,29.53,ENE,64,3.0,14.0,98,0.00,,,0.62,30,weatherlink.com 1.10,2013-02-27 13:27:00,
2013-02-27 08:42:00,47.0,47.0,29.53,NE,46,10.0,12.0,98,0.00,,,0.62,53,weatherlink.com 1.10,2013-02-27 13:42:00,
2013-02-27 08:57:00,46.8,46.0,29.53,East,79,3.0,13.0,98,0.00,,,0.62,39,weatherlink.com 1.10,2013-02-27 13:57:00,
2013-02-27 09:12:00,46.8,46.0,29.52,East,82,8.0,10.0,98,0.00,,,0.62,67,weatherlink.com 1.10,2013-02-27 14:12:00,
2013-02-27 09:27:00,47.0,47.0,29.53,ESE,114,3.0,10.0,98,0.00,,,0.62,67,weatherlink.com 1.10,2013-02-27 14:27:00,
2013-02-27 09:42:00,47.8,47.0,29.53,ESE,108,2.0,6.0,98,0.00,,,0.62,141,weatherlink.com 1.10,2013-02-27 14:42:00,
2013-02-27 09:57:00,48.3,48.0,29.54,ESE,106,0.0,3.0,98,0.00,,,0.62,107,weatherlink.com 1.10,2013-02-27 14:57:00,
2013-02-27 10:12:00,49.0,49.0,29.52,ESE,106,0.0,2.0,98,0.00,,,0.62,188,weatherlink.com 1.10,2013-02-27 15:12:00,
2013-02-27 10:27:00,49.7,49.0,29.52,SSW,206,0.0,3.0,98,0.00,,,0.62,311,weatherlink.com 1.10,2013-02-27 15:27:00,
2013-02-27 10:42:00,50.7,50.0,29.52,SW,220,0.0,4.0,98,0.00,,,0.62,213,weatherlink.com 1.10,2013-02-27 15:42:00,
2013-02-27 10:59:00,51.5,51.0,29.52,WSW,238,4.0,8.0,98,0.00,,,0.62,111,weatherlink.com 1.10,2013-02-27 15:59:00,
2013-02-27 11:13:00,51.9,51.0,29.53,WSW,237,2.0,8.0,98,0.00,,,0.62,109,weatherlink.com 1.10,2013-02-27 16:13:00,
2013-02-27 11:28:00,52.8,52.0,29.53,SW,236,4.0,15.0,97,0.00,,,0.62,216,weatherlink.com 1.10,2013-02-27 16:28:00,
2013-02-27 11:43:00,55.4,54.0,29.53,WNW,286,6.0,15.0,93,0.01,,,0.63,724,weatherlink.com 1.10,2013-02-27 16:43:00,
2013-02-27 11:58:00,55.0,51.0,29.52,WSW,242,4.0,17.0,87,0.01,,,0.63,267,weatherlink.com 1.10,2013-02-27 16:58:00,
2013-02-27 12:13:00,54.8,50.0,29.51,WSW,248,5.0,22.0,84,0.01,,,0.63,148,weatherlink.com 1.10,2013-02-27 17:13:00,
2013-02-27 12:28:00,53.8,50.0,29.52,WSW,241,8.0,19.0,86,0.01,,,0.63,118,weatherlink.com 1.10,2013-02-27 17:28:00,
2013-02-27 12:43:00,52.6,50.0,29.52,WSW,247,18.0,19.0,89,0.00,,,0.63,91,weatherlink.com 1.10,2013-02-27 17:43:00,
2013-02-27 12:58:00,51.9,49.0,29.53,WSW,250,10.0,21.0,89,0.00,,,0.63,69,weatherlink.com 1.10,2013-02-27 17:58:00,
2013-02-27 13:13:00,51.4,48.0,29.53,SW,222,8.0,20.0,89,0.00,,,0.63,86,weatherlink.com 1.10,2013-02-27 18:13:00,
2013-02-27 13:30:00,51.1,47.0,29.54,WSW,250,10.0,22.0,86,0.00,,,0.63,74,weatherlink.com 1.10,2013-02-27 18:30:00,
2013-02-27 13:43:00,51.0,47.0,29.54,West,270,8.0,13.0,87,0.00,,,0.63,163,weatherlink.com 1.10,2013-02-27 18:43:00,
2013-02-27 13:59:00,52.5,47.0,29.54,WNW,288,10.0,17.0,82,0.00,,,0.63,197,weatherlink.com 1.10,2013-02-27 18:59:00,
2013-02-27 14:13:00,52.5,47.0,29.55,West,260,4.0,18.0,80,0.00,,,0.63,283,weatherlink.com 1.10,2013-02-27 19:13:00,
2013-02-27 14:28:00,52.9,46.0,29.56,West,273,11.0,20.0,78,0.00,,,0.63,287,weatherlink.com 1.10,2013-02-27 19:28:00,
2013-02-27 14:43:00,53.0,45.0,29.56,West,280,16.0,22.0,75,0.00,,,0.63,606,weatherlink.com 1.10,2013-02-27 19:43:00,
2013-02-27 14:58:00,52.9,45.0,29.56,WNW,296,6.0,23.0,74,0.00,,,0.63,575,weatherlink.com 1.10,2013-02-27 19:58:00,
2013-02-27 15:13:00,54.7,44.0,29.57,WNW,293,13.0,19.0,68,0.00,,,0.63,536,weatherlink.com 1.10,2013-02-27 20:13:00,
2013-02-27 15:28:00,51.9,43.0,29.58,WNW,296,12.0,19.0,73,0.00,,,0.63,88,weatherlink.com 1.10,2013-02-27 20:28:00,
2013-02-27 15:43:00,53.7,44.0,29.58,West,275,4.0,18.0,69,0.00,,,0.63,490,weatherlink.com 1.10,2013-02-27 20:43:00,
2013-02-27 15:58:00,53.0,41.0,29.59,NW,316,7.0,23.0,65,0.00,,,0.63,294,weatherlink.com 1.10,2013-02-27 20:58:00,
2013-02-27 16:13:00,52.3,42.0,29.60,West,279,16.0,21.0,67,0.00,,,0.63,109,weatherlink.com 1.10,2013-02-27 21:13:00,
2013-02-27 16:28:00,51.0,41.0,29.60,NNW,333,6.0,19.0,69,0.00,,,0.63,65,weatherlink.com 1.10,2013-02-27 21:28:00,
2013-02-27 16:44:00,49.9,40.0,29.62,WNW,286,18.0,22.0,68,0.00,,,0.63,39,weatherlink.com 1.10,2013-02-27 21:44:00,
2013-02-27 16:58:00,49.8,40.0,29.62,WNW,290,3.0,18.0,68,0.00,,,0.63,46,weatherlink.com 1.10,2013-02-27 21:58:00,
2013-02-27 17:14:00,49.4,40.0,29.63,NW,311,4.0,12.0,70,0.00,,,0.63,39,weatherlink.com 1.10,2013-02-27 22:14:00,
2013-02-27 17:28:00,48.8,40.0,29.64,NW,309,7.0,13.0,71,0.00,,,0.63,16,weatherlink.com 1.10,2013-02-27 22:28:00,
2013-02-27 17:43:00,48.7,40.0,29.65,NNW,328,10.0,11.0,71,0.00,,,0.63,0,weatherlink.com 1.10,2013-02-27 22:43:00,
2013-02-27 18:00:00,48.2,40.0,29.65,West,281,10.0,10.0,72,0.00,,,0.63,0,weatherlink.com 1.10,2013-02-27 23:00:00,
2013-02-27 18:15:00,47.5,39.0,29.65,West,279,1.0,8.0,73,0.00,,,0.63,0,weatherlink.com 1.10,2013-02-27 23:15:00,
2013-02-27 18:29:00,47.2,40.0,29.66,WNW,283,4.0,6.0,75,0.00,,,0.63,0,weatherlink.com 1.10,2013-02-27 23:29:00,
2013-02-27 18:44:00,47.1,40.0,29.67,West,276,1.0,6.0,75,0.00,,,0.63,0,weatherlink.com 1.10,2013-02-27 23:44:00,
2013-02-27 18:59:00,46.8,40.0,29.66,West,273,1.0,3.0,76,0.00,,,0.63,0,weatherlink.com 1.10,2013-02-27 23:59:00,
2013-02-27 19:14:00,45.8,40.0,29.67,West,273,2.0,3.0,79,0.00,,,0.63,0,weatherlink.com 1.10,2013-02-28 00:14:00,
2013-02-27 19:29:00,44.5,39.0,29.67,West,273,0.0,2.0,82,0.00,,,0.63,0,weatherlink.com 1.10,2013-02-28 00:29:00,
2013-02-27 19:44:00,43.3,39.0,29.67,West,273,0.0,2.0,85,0.00,,,0.63,0,weatherlink.com 1.10,2013-02-28 00:44:00,
2013-02-27 19:59:00,42.0,38.0,29.68,West,273,2.0,2.0,86,0.00,,,0.63,0,weatherlink.com 1.10,2013-02-28 00:59:00,
2013-02-27 20:15:00,41.1,38.0,29.68,West,273,0.0,1.0,89,0.00,,,0.63,0,weatherlink.com 1.10,2013-02-28 01:15:00,
2013-02-27 20:29:00,41.5,39.0,29.68,West,273,1.0,2.0,89,0.00,,,0.63,0,weatherlink.com 1.10,2013-02-28 01:29:00,
2013-02-27 20:44:00,42.2,39.0,29.69,West,273,1.0,2.0,89,0.00,,,0.63,0,weatherlink.com 1.10,2013-02-28 01:44:00,
2013-02-27 20:59:00,42.2,40.0,29.69,West,273,0.0,1.0,90,0.00,,,0.63,0,weatherlink.com 1.10,2013-02-28 01:59:00,
2013-02-27 21:14:00,42.5,40.0,29.69,West,273,0.0,1.0,90,0.00,,,0.63,0,weatherlink.com 1.10,2013-02-28 02:14:00,
2013-02-27 21:29:00,42.6,40.0,29.69,West,273,0.0,2.0,89,0.00,,,0.63,0,weatherlink.com 1.10,2013-02-28 02:29:00,
2013-02-27 21:44:00,42.5,40.0,29.69,West,273,0.0,2.0,90,0.00,,,0.63,0,weatherlink.com 1.10,2013-02-28 02:44:00,
2013-02-27 21:59:00,42.7,40.0,29.68,West,273,0.0,1.0,90,0.00,,,0.63,0,weatherlink.com 1.10,2013-02-28 02:59:00,
2013-02-27 22:14:00,42.5,40.0,29.68,West,273,0.0,0.0,90,0.00,,,0.63,0,weatherlink.com 1.10,2013-02-28 03:14:00,
2013-02-27 22:30:00,42.6,40.0,29.68,West,273,0.0,0.0,90,0.00,,,0.63,0,weatherlink.com 1.10,2013-02-28 03:30:00,
2013-02-27 22:45:00,42.8,40.0,29.68,West,273,0.0,1.0,90,0.00,,,0.63,0,weatherlink.com 1.10,2013-02-28 03:45:00,
2013-02-27 22:59:00,42.7,40.0,29.68,West,273,0.0,0.0,90,0.00,,,0.63,0,weatherlink.com 1.10,2013-02-28 03:59:00,
2013-02-27 23:30:00,42.4,40.0,29.66,West,273,0.0,1.0,92,0.00,,,0.63,0,weatherlink.com 1.10,2013-02-28 04:30:00,
2013-02-27 23:44:00,42.3,40.0,29.66,West,273,0.0,0.0,92,0.00,,,0.63,0,weatherlink.com 1.10,2013-02-28 04:44:00,